»·PEaware :: N454MD KBUR-KSBA

N454MD :: KBUR-KSBA

FLIGHT INFORMATION

Flight Status: Arrived
Operator: Privately registered:
United States
More flights under this callsign
Pilot: Richard H. (11485)
Aircraft: PIPER PA-28 CHEROKEE ARCHER
(P28A)
More flights by this aircraft type
Origin: KBUR Bob Hope-Burbank
United States
Destination: KSBA Santa Barbara Mun
United States
More flights between these airports :: More routes between these airports
Route: +VNY3 FIM V186 DEANO V27 KWANG
File this flight plan on PilotEdge
Remarks:
Altitude:
(Current/Filed)
6,000ft
Speed:
(Current/Filed)
110kts
Departed: 07-Oct-18 10:24 AM
Arrived: 07-Oct-18 11:06 AM
Distance/Time
Traveled:
75nm/0:42
Distance/Time
To Go:
Arrived

Flight Plot

Page will automatically refresh every two minutes.

Flight plan parsing failed; only flown route is shown


Map Options




Map Legend


Flown Route
Filed Route
Departure Airport
Arrival Airport
Navaid (VOR, NDB)
Fix

Horizontal Profiles

Position Reports

Time Latitude Longitude Heading Altitude Ground
Speed
07-Oct-18 10:12 34.202589 -118.360110 257 724ft 0kts
07-Oct-18 10:13 34.202589 -118.360115 257 724ft 0kts
07-Oct-18 10:14 34.202588 -118.360119 257 724ft 0kts
07-Oct-18 10:15 34.202587 -118.360123 257 724ft 0kts
07-Oct-18 10:16 34.202586 -118.360128 257 724ft 0kts
07-Oct-18 10:17 34.202585 -118.360132 257 724ft 0kts
07-Oct-18 10:18 34.202584 -118.360136 257 724ft 0kts
07-Oct-18 10:19 34.202584 -118.360141 257 724ft 0kts
07-Oct-18 10:20 34.202482 -118.360199 100 724ft 4kts
07-Oct-18 10:21 34.204701 -118.359732 50 724ft 6kts
07-Oct-18 10:22 34.207799 -118.360436 347 724ft 11kts
07-Oct-18 10:23 34.209587 -118.360553 74 724ft 0kts
07-Oct-18 10:24 34.209587 -118.360549 74 724ft 0kts
07-Oct-18 10:25 34.209588 -118.360545 74 724ft 0kts
07-Oct-18 10:26 34.201443 -118.357882 171 835ft 86kts
07-Oct-18 10:27 34.180888 -118.366048 229 1809ft 90kts
07-Oct-18 10:28 34.164954 -118.390348 226 2834ft 89kts
07-Oct-18 10:29 34.157271 -118.416957 281 3840ft 91kts
07-Oct-18 10:30 34.162282 -118.447818 280 4980ft 94kts
07-Oct-18 10:31 34.166007 -118.479826 278 5953ft 98kts
07-Oct-18 10:32 34.169233 -118.519959 277 6016ft 131kts
07-Oct-18 10:33 34.173423 -118.564349 281 5993ft 130kts
07-Oct-18 10:34 34.181791 -118.605738 286 5984ft 125kts
07-Oct-18 10:35 34.189653 -118.644637 286 6003ft 128kts
07-Oct-18 10:36 34.195920 -118.680343 284 6001ft 128kts
07-Oct-18 10:37 34.202314 -118.721636 283 5984ft 123kts
07-Oct-18 10:38 34.207281 -118.762724 280 5986ft 124kts
07-Oct-18 10:39 34.211185 -118.803994 280 5988ft 124kts
07-Oct-18 10:40 34.214651 -118.842627 280 5993ft 126kts
07-Oct-18 10:41 34.217802 -118.878580 280 6009ft 131kts
07-Oct-18 10:42 34.224030 -118.926312 285 6005ft 127kts
07-Oct-18 10:43 34.230569 -118.960310 289 5989ft 123kts
07-Oct-18 10:44 34.238146 -119.007247 285 5972ft 123kts
07-Oct-18 10:45 34.243083 -119.041610 286 5977ft 125kts
07-Oct-18 10:46 34.250436 -119.090258 284 5979ft 124kts
07-Oct-18 10:47 34.254950 -119.124152 284 5963ft 120kts
07-Oct-18 10:48 34.261476 -119.172897 285 5999ft 127kts
07-Oct-18 10:49 34.266385 -119.208257 284 5987ft 127kts
07-Oct-18 10:50 34.272688 -119.256389 286 5976ft 123kts
07-Oct-18 10:51 34.277585 -119.290439 285 5976ft 123kts
07-Oct-18 10:52 34.284226 -119.339045 285 5988ft 124kts
07-Oct-18 10:53 34.288728 -119.372876 285 5971ft 120kts
07-Oct-18 10:54 34.294082 -119.413490 285 5419ft 122kts
07-Oct-18 10:55 34.299547 -119.453899 285 4808ft 120kts
07-Oct-18 10:56 34.304916 -119.493218 285 4247ft 117kts
07-Oct-18 10:57 34.310147 -119.531495 285 4025ft 116kts
07-Oct-18 10:58 34.316040 -119.567269 288 4027ft 116kts
07-Oct-18 10:59 34.323903 -119.604973 294 4024ft 114kts
07-Oct-18 11:00 34.337525 -119.639000 309 4022ft 111kts
07-Oct-18 11:01 34.355461 -119.668830 309 3932ft 107kts
07-Oct-18 11:02 34.374481 -119.697088 316 3077ft 107kts
07-Oct-18 11:03 34.398260 -119.721628 317 2380ft 117kts
07-Oct-18 11:04 34.419494 -119.751538 303 1894ft 124kts
07-Oct-18 11:05 34.429662 -119.783666 264 1193ft 74kts
07-Oct-18 11:06 34.428677 -119.808656 262 601ft 82kts
07-Oct-18 11:07 34.427989 -119.835341 261 30ft 66kts
07-Oct-18 11:08 34.426944 -119.841469 163 13ft 0kts
07-Oct-18 11:09 34.426940 -119.841468 163 13ft 0kts
07-Oct-18 11:10 34.426937 -119.841467 163 13ft 0kts
07-Oct-18 11:11 34.426704 -119.838058 97 13ft 19kts

Navigation Log

Ident Type
Flight plan parsing failed, navigation log unavailable